Time;durP1;ratioP1;P1;durP2;ratioP2;P2;SDS_P1;SDS_P2;PMS_P1;PMS_P2;Temp;Humidity;BMP_temperature;BMP_pressure;BME280_temperature;BME280_humidity;BME280_pressure;Samples;Min_cycle;Max_cycle;Signal;HPM_P1;HPM_P2
2024/05/07 00:01:07;;;;;;;7.78;6.60;;;13.20;99.90;;;;;;5472125;26;19995;-66
2024/05/07 00:03:33;;;;;;;11.10;7.20;;;13.10;99.90;;;;;;5473607;26;20063;-66
2024/05/07 00:05:58;;;;;;;7.90;6.75;;;13.10;99.90;;;;;;5474316;26;20031;-66
2024/05/07 00:08:24;;;;;;;10.52;7.88;;;13.10;99.90;;;;;;5465618;26;19998;-66
2024/05/07 00:10:50;;;;;;;12.18;8.45;;;13.10;99.90;;;;;;5442688;26;20007;-66
2024/05/07 00:13:15;;;;;;;9.50;7.60;;;13.10;99.90;;;;;;5470474;26;20017;-66
2024/05/07 00:15:41;;;;;;;8.25;7.07;;;13.10;99.90;;;;;;5474093;26;20009;-66
2024/05/07 00:18:07;;;;;;;9.02;7.28;;;13.00;99.90;;;;;;5474005;26;20399;-66
2024/05/07 00:20:33;;;;;;;10.23;7.85;;;13.00;99.90;;;;;;5436874;26;19995;-66
2024/05/07 00:22:58;;;;;;;13.52;8.38;;;13.00;99.90;;;;;;5474004;26;20485;-66
2024/05/07 00:25:24;;;;;;;;;;;13.00;99.90;;;;;;5454456;26;20188;-66
2024/05/07 00:27:49;;;;;;;9.90;7.50;;;13.00;99.90;;;;;;5446706;26;20279;-66
2024/05/07 00:30:15;;;;;;;11.65;7.72;;;12.90;99.90;;;;;;5477121;26;20510;-66
2024/05/07 00:32:40;;;;;;;8.60;7.70;;;12.90;99.90;;;;;;5472705;26;20042;-66
2024/05/07 00:35:06;;;;;;;8.65;7.65;;;12.90;99.90;;;;;;5480400;26;19994;-66
2024/05/07 00:37:31;;;;;;;11.55;7.93;;;12.90;99.90;;;;;;5449291;26;20324;-66
2024/05/07 00:39:57;;;;;;;9.25;7.57;;;12.80;99.90;;;;;;5450818;26;20009;-66
2024/05/07 00:42:23;;;;;;;9.20;7.70;;;12.80;99.90;;;;;;5442599;26;20003;-66
2024/05/07 00:44:48;;;;;;;12.75;8.38;;;12.80;99.90;;;;;;5450032;26;20013;-66
2024/05/07 00:47:15;;;;;;;8.80;7.90;;;12.80;99.90;;;;;;5467175;26;20513;-67
2024/05/07 00:49:41;;;;;;;10.38;8.55;;;12.70;99.90;;;;;;5475155;26;19998;-67
2024/05/07 00:52:08;;;;;;;10.10;8.80;;;12.70;99.90;;;;;;5480047;26;20324;-66
2024/05/07 00:54:35;;;;;;;13.05;8.55;;;12.70;99.90;;;;;;5451464;26;20021;-66
2024/05/07 00:57:02;;;;;;;10.77;8.65;;;12.60;99.90;;;;;;5439277;26;20040;-66
2024/05/07 00:59:27;;;;;;;10.25;8.68;;;12.60;99.90;;;;;;5474589;26;20035;-67
2024/05/07 01:01:54;;;;;;;11.38;8.95;;;12.60;99.90;;;;;;5476400;26;20444;-66
2024/05/07 01:04:20;;;;;;;12.68;8.98;;;12.60;99.90;;;;;;5464188;26;20002;-66
2024/05/07 01:06:46;;;;;;;9.65;8.30;;;12.50;99.90;;;;;;5471076;26;19998;-66
2024/05/07 01:09:12;;;;;;;12.27;9.10;;;12.50;99.90;;;;;;5443769;26;20026;-67
2024/05/07 01:11:41;;;;;;;11.50;8.13;;;12.50;99.90;;;;;;5474118;26;20003;-66
2024/05/07 01:14:07;;;;;;;10.68;8.55;;;12.40;99.90;;;;;;5477917;26;20459;-66
2024/05/07 01:16:33;;;;;;;10.15;8.10;;;12.40;99.90;;;;;;5474803;26;20010;-66
2024/05/07 01:19:05;;;;;;;13.27;8.70;;;12.40;99.90;;;;;;5470556;26;20075;-67
2024/05/07 01:21:31;;;;;;;11.88;8.40;;;12.40;99.90;;;;;;5476253;26;20370;-66
2024/05/07 01:23:56;;;;;;;9.48;8.48;;;12.30;99.90;;;;;;5468330;26;20017;-67
2024/05/07 01:26:22;;;;;;;9.10;7.88;;;12.30;99.90;;;;;;5472700;26;19994;-67
2024/05/07 01:28:48;;;;;;;11.10;8.48;;;12.30;99.90;;;;;;5464233;26;20034;-67
2024/05/07 01:31:14;;;;;;;12.63;8.85;;;12.30;99.90;;;;;;5468236;26;20009;-67
2024/05/07 01:33:40;;;;;;;;;;;12.20;99.90;;;;;;5470379;26;20013;-67
2024/05/07 01:36:08;;;;;;;13.55;9.07;;;12.20;99.90;;;;;;5467063;26;19924;-67
2024/05/07 01:38:34;;;;;;;14.38;9.35;;;12.10;99.90;;;;;;5475590;26;19999;-67
2024/05/07 01:41:00;;;;;;;9.70;8.18;;;12.10;99.90;;;;;;5474733;26;20004;-67
2024/05/07 01:43:25;;;;;;;11.88;9.00;;;12.10;99.90;;;;;;5469523;26;19998;-67
2024/05/07 01:45:51;;;;;;;12.98;9.07;;;12.00;99.90;;;;;;5475369;26;20013;-67
2024/05/07 01:48:16;;;;;;;11.07;8.43;;;12.00;99.90;;;;;;5469587;26;20009;-67
2024/05/07 01:50:42;;;;;;;9.75;8.60;;;11.90;99.90;;;;;;5466947;26;20013;-67
2024/05/07 01:53:08;;;;;;;11.57;9.77;;;11.90;99.90;;;;;;5474663;26;19998;-67
2024/05/07 01:55:34;;;;;;;13.07;9.68;;;11.90;99.90;;;;;;5441670;26;19994;-67
2024/05/07 01:58:00;;;;;;;10.73;8.60;;;11.90;99.90;;;;;;5469365;26;20321;-67
2024/05/07 02:00:25;;;;;;;11.88;9.43;;;11.80;99.90;;;;;;5475654;26;20013;-67
2024/05/07 02:02:51;;;;;;;15.13;9.45;;;11.70;99.90;;;;;;5475080;26;20457;-67
2024/05/07 02:05:16;;;;;;;11.60;9.15;;;11.70;99.90;;;;;;5476163;26;20026;-67
2024/05/07 02:07:42;;;;;;;15.15;10.00;;;11.60;99.90;;;;;;5446415;26;19994;-67
2024/05/07 02:10:07;;;;;;;13.60;9.88;;;11.70;99.90;;;;;;5463010;26;20002;-66
2024/05/07 02:12:35;;;;;;;10.82;9.65;;;11.60;99.90;;;;;;5443285;26;19999;-66
2024/05/07 02:15:00;;;;;;;12.05;10.30;;;11.60;99.90;;;;;;5466997;26;20010;-66
2024/05/07 02:17:26;;;;;;;13.85;10.10;;;11.60;99.90;;;;;;5468785;26;20505;-66
2024/05/07 02:19:52;;;;;;;11.55;9.38;;;11.50;99.90;;;;;;5452356;26;20010;-66
2024/05/07 02:22:18;;;;;;;13.35;9.82;;;11.50;99.90;;;;;;5473777;26;20428;-66
2024/05/07 02:24:44;;;;;;;15.35;10.00;;;11.50;99.90;;;;;;5458405;26;20067;-67
2024/05/07 02:27:10;;;;;;;10.93;9.40;;;11.40;99.90;;;;;;5473153;26;20034;-67
2024/05/07 02:29:35;;;;;;;14.55;9.63;;;11.40;99.90;;;;;;5450285;26;20002;-66
2024/05/07 02:32:01;;;;;;;11.02;9.07;;;11.40;99.90;;;;;;5477242;26;19994;-66
2024/05/07 02:34:26;;;;;;;14.30;10.07;;;11.30;99.90;;;;;;5443488;26;19999;-66
2024/05/07 02:36:52;;;;;;;13.93;9.48;;;11.30;99.90;;;;;;5445151;26;19994;-66
2024/05/07 02:39:18;;;;;;;12.98;10.50;;;11.30;99.90;;;;;;5469101;26;20071;-66
2024/05/07 02:41:44;;;;;;;14.65;11.38;;;11.20;99.90;;;;;;5476301;26;19998;-66
2024/05/07 02:44:10;;;;;;;14.23;10.50;;;11.20;99.90;;;;;;5474910;26;20396;-66
2024/05/07 02:46:36;;;;;;;14.57;10.32;;;11.20;99.90;;;;;;5476495;26;20010;-66
2024/05/07 02:49:01;;;;;;;14.60;10.48;;;11.20;99.90;;;;;;5470761;26;20002;-66
2024/05/07 02:51:27;;;;;;;14.70;10.80;;;11.20;99.90;;;;;;5472210;26;19995;-66
2024/05/07 02:53:52;;;;;;;15.30;11.02;;;11.10;99.90;;;;;;5474691;26;20003;-67
2024/05/07 02:56:18;;;;;;;12.32;10.32;;;11.10;99.90;;;;;;5448680;26;20044;-67
2024/05/07 02:58:44;;;;;;;12.88;10.82;;;11.10;99.90;;;;;;5443790;26;20055;-67
2024/05/07 03:01:10;;;;;;;17.83;11.95;;;11.10;99.90;;;;;;5477187;26;20024;-67
2024/05/07 03:03:36;;;;;;;13.18;11.23;;;11.10;99.90;;;;;;5469854;26;20002;-67
2024/05/07 03:06:08;;;;;;;14.85;12.02;;;11.00;99.90;;;;;;5473209;26;20014;-66
2024/05/07 03:08:34;;;;;;;15.95;11.73;;;11.10;99.90;;;;;;5477908;26;20383;-67
2024/05/07 03:11:00;;;;;;;18.08;12.13;;;11.00;99.90;;;;;;5448718;26;20013;-66
2024/05/07 03:13:26;;;;;;;15.45;11.98;;;11.00;99.90;;;;;;5478024;26;20002;-66
2024/05/07 03:15:52;;;;;;;14.40;11.65;;;11.00;99.90;;;;;;5467793;26;20003;-67
2024/05/07 03:18:18;;;;;;;12.52;11.23;;;10.90;99.90;;;;;;5474042;26;19998;-66
2024/05/07 03:20:44;;;;;;;14.52;11.10;;;10.90;99.90;;;;;;5470199;26;20014;-67
2024/05/07 03:23:10;;;;;;;15.57;12.38;;;10.90;99.90;;;;;;5448990;26;19998;-67
2024/05/07 03:25:36;;;;;;;17.70;13.02;;;10.90;99.90;;;;;;5468937;26;20325;-67
2024/05/07 03:28:03;;;;;;;25.30;12.55;;;10.90;99.90;;;;;;5475166;26;20002;-67
2024/05/07 03:30:28;;;;;;;19.77;13.02;;;10.90;99.90;;;;;;5445141;26;20033;-66
2024/05/07 03:32:54;;;;;;;18.13;13.32;;;10.90;99.90;;;;;;5440647;26;20333;-66
2024/05/07 03:35:20;;;;;;;16.90;13.60;;;10.90;99.90;;;;;;5442387;26;20007;-67
2024/05/07 03:37:46;;;;;;;18.83;13.52;;;10.90;99.90;;;;;;5469466;26;20051;-67
2024/05/07 03:40:12;;;;;;;17.55;13.20;;;10.80;99.90;;;;;;5475687;26;20010;-67
2024/05/07 03:42:37;;;;;;;19.60;14.23;;;10.80;99.90;;;;;;5449735;26;20354;-67
2024/05/07 03:45:03;;;;;;;16.92;13.70;;;10.90;99.90;;;;;;5470459;26;20321;-67
2024/05/07 03:47:29;;;;;;;20.52;12.90;;;10.90;99.90;;;;;;5447431;26;20468;-67
2024/05/07 03:49:54;;;;;;;16.10;13.23;;;10.80;99.90;;;;;;5468593;26;20021;-67
2024/05/07 03:52:20;;;;;;;18.20;13.57;;;10.80;99.90;;;;;;5470088;26;20002;-67
2024/05/07 03:54:48;;;;;;;18.90;13.63;;;10.80;99.90;;;;;;5473675;26;19998;-67
2024/05/07 03:57:14;;;;;;;20.10;13.85;;;10.80;99.90;;;;;;5451750;26;20012;-68
2024/05/07 03:59:41;;;;;;;17.00;12.48;;;10.80;99.90;;;;;;5465602;26;20002;-67
2024/05/07 04:02:06;;;;;;;17.27;13.48;;;10.80;99.90;;;;;;5475661;26;20456;-67
2024/05/07 04:04:32;;;;;;;19.73;14.82;;;10.70;99.90;;;;;;5450641;26;20007;-67
2024/05/07 04:06:57;;;;;;;16.50;13.68;;;10.70;99.90;;;;;;5477440;26;20002;-67
2024/05/07 04:09:23;;;;;;;19.63;15.05;;;10.70;99.90;;;;;;5476095;26;19998;-67
2024/05/07 04:11:48;;;;;;;18.98;14.23;;;10.70;99.90;;;;;;5470949;26;20010;-67
2024/05/07 04:14:14;;;;;;;19.02;14.95;;;10.70;99.90;;;;;;5445834;26;20002;-66
2024/05/07 04:16:39;;;;;;;16.85;14.23;;;10.70;99.90;;;;;;5453018;26;20416;-67
2024/05/07 04:19:05;;;;;;;17.42;14.38;;;10.70;99.90;;;;;;5476831;26;19999;-67
2024/05/07 04:21:31;;;;;;;19.05;14.80;;;10.70;99.90;;;;;;5448276;26;20022;-66
2024/05/07 04:23:56;;;;;;;21.25;14.52;;;10.70;99.90;;;;;;5473039;26;20010;-67
2024/05/07 04:26:22;;;;;;;20.73;15.00;;;10.70;99.90;;;;;;5468032;26;20019;-67
2024/05/07 04:28:48;;;;;;;16.98;14.43;;;10.60;99.90;;;;;;5468323;26;20006;-67
2024/05/07 04:31:14;;;;;;;19.48;15.35;;;10.60;99.90;;;;;;5473312;26;19998;-66
2024/05/07 04:33:40;;;;;;;;;;;10.60;99.90;;;;;;5474868;26;20032;-67
2024/05/07 04:36:05;;;;;;;17.58;14.73;;;10.50;99.90;;;;;;5450795;26;19924;-67
2024/05/07 04:38:31;;;;;;;22.33;15.65;;;10.50;99.90;;;;;;5450125;26;19994;-66
2024/05/07 04:40:57;;;;;;;21.88;15.77;;;10.50;99.90;;;;;;5446856;26;19995;-66
2024/05/07 04:43:23;;;;;;;19.63;15.55;;;10.50;99.90;;;;;;5475589;26;20010;-67
2024/05/07 04:45:48;;;;;;;23.27;15.73;;;10.50;99.90;;;;;;5467403;26;20002;-66
2024/05/07 04:48:14;;;;;;;21.90;15.68;;;10.50;99.90;;;;;;5443549;26;19999;-67
2024/05/07 04:50:40;;;;;;;;;;;10.60;99.90;;;;;;5470553;26;19999;-66
2024/05/07 04:53:07;;;;;;;23.15;16.00;;;10.60;99.90;;;;;;5471869;26;19924;-67
2024/05/07 04:55:42;;;;;;;19.55;16.20;;;10.60;99.90;;;;;;5469245;26;19994;-67
2024/05/07 04:58:09;;;;;;;21.65;16.02;;;10.60;99.90;;;;;;5403513;26;20006;-66
2024/05/07 05:00:34;;;;;;;25.30;16.98;;;10.60;99.90;;;;;;5470916;26;20020;-67
2024/05/07 05:03:00;;;;;;;18.70;14.88;;;10.60;99.90;;;;;;5450129;26;20452;-67
2024/05/07 05:05:25;;;;;;;20.52;16.55;;;10.60;99.90;;;;;;5471595;26;19998;-66
2024/05/07 05:07:51;;;;;;;20.50;16.67;;;10.70;99.90;;;;;;5471144;26;20006;-67
2024/05/07 05:10:17;;;;;;;22.33;16.60;;;10.70;99.90;;;;;;5476285;26;19994;-67
2024/05/07 05:12:42;;;;;;;23.95;17.35;;;10.70;99.90;;;;;;5472326;26;20010;-66
2024/05/07 05:15:08;;;;;;;26.45;18.50;;;10.80;99.90;;;;;;5473040;26;20006;-67
2024/05/07 05:17:34;;;;;;;22.60;18.42;;;10.80;99.90;;;;;;5468395;26;20002;-67
2024/05/07 05:20:00;;;;;;;;;;;10.80;99.90;;;;;;5472654;26;20002;-66
2024/05/07 05:22:25;;;;;;;24.30;18.45;;;10.90;99.90;;;;;;5448766;26;19931;-67
2024/05/07 05:24:51;;;;;;;22.80;18.23;;;10.90;99.90;;;;;;5477726;26;19998;-66
2024/05/07 05:27:16;;;;;;;21.90;17.77;;;11.00;99.90;;;;;;5471194;26;19995;-66
2024/05/07 05:29:42;;;;;;;23.45;18.13;;;11.00;99.90;;;;;;5473618;26;19994;-66
2024/05/07 05:32:07;;;;;;;23.15;18.67;;;11.00;99.90;;;;;;5474662;26;20013;-66
2024/05/07 05:34:33;;;;;;;26.48;19.45;;;11.10;99.90;;;;;;5470577;26;20355;-67
2024/05/07 05:36:58;;;;;;;26.83;18.83;;;11.10;99.90;;;;;;5467247;26;20002;-66
2024/05/07 05:39:26;;;;;;;26.80;19.15;;;11.10;99.90;;;;;;5473075;26;19991;-66
2024/05/07 05:41:51;;;;;;;25.17;18.92;;;11.20;99.90;;;;;;5445588;26;20078;-67
2024/05/07 05:44:17;;;;;;;25.80;19.65;;;11.20;99.90;;;;;;5467572;26;20003;-66
2024/05/07 05:46:42;;;;;;;24.08;19.08;;;11.30;99.90;;;;;;5475749;26;20006;-66
2024/05/07 05:49:08;;;;;;;25.48;19.00;;;11.30;99.90;;;;;;5470600;26;20019;-66
2024/05/07 05:51:34;;;;;;;28.30;19.08;;;11.40;99.90;;;;;;5449052;26;20018;-66
2024/05/07 05:54:00;;;;;;;25.70;20.20;;;11.40;99.90;;;;;;5466781;26;19999;-66
2024/05/07 05:56:26;;;;;;;24.05;18.67;;;11.50;99.90;;;;;;5474579;26;20364;-66
2024/05/07 05:58:51;;;;;;;24.10;19.02;;;11.50;99.90;;;;;;5466034;26;20433;-66
2024/05/07 06:01:17;;;;;;;23.58;17.65;;;11.60;99.90;;;;;;5465045;26;20336;-67
2024/05/07 06:03:44;;;;;;;22.25;17.52;;;11.60;99.90;;;;;;5446365;26;20012;-67
2024/05/07 06:06:12;;;;;;;24.35;18.00;;;11.70;99.90;;;;;;5470236;26;20021;-67
2024/05/07 06:08:38;;;;;;;24.40;18.45;;;11.80;99.90;;;;;;5470384;26;19994;-67
2024/05/07 06:11:03;;;;;;;22.48;17.67;;;11.90;99.90;;;;;;5472104;26;20021;-67
2024/05/07 06:13:29;;;;;;;23.02;17.33;;;12.00;99.90;;;;;;5439497;26;20007;-67
2024/05/07 06:15:55;;;;;;;20.55;16.95;;;12.10;99.90;;;;;;5470448;26;20428;-67
2024/05/07 06:18:21;;;;;;;20.95;16.30;;;12.20;99.90;;;;;;5466297;26;20437;-67
2024/05/07 06:20:47;;;;;;;21.00;16.05;;;12.30;99.90;;;;;;5473662;26;20026;-67
2024/05/07 06:23:19;;;;;;;;;;;12.40;99.90;;;;;;5471869;26;19994;-67
2024/05/07 06:25:49;;;;;;;19.92;15.32;;;12.50;99.90;;;;;;5471824;26;19932;-67
2024/05/07 06:28:15;;;;;;;16.70;14.68;;;12.70;99.90;;;;;;5438343;26;20005;-67
2024/05/07 06:30:42;;;;;;;22.27;14.73;;;12.90;99.90;;;;;;5444250;26;20031;-67
2024/05/07 06:33:08;;;;;;;22.75;14.70;;;13.10;99.90;;;;;;5443547;26;20023;-67
2024/05/07 06:35:34;;;;;;;15.63;12.93;;;13.30;99.90;;;;;;5467395;26;20014;-67
2024/05/07 06:38:01;;;;;;;17.25;13.23;;;13.60;99.90;;;;;;5467420;26;20005;-67
2024/05/07 06:40:27;;;;;;;24.17;14.52;;;13.80;99.90;;;;;;5466222;26;20436;-67
2024/05/07 06:42:52;;;;;;;17.58;12.73;;;14.00;99.90;;;;;;5451949;26;20042;-67
2024/05/07 06:45:20;;;;;;;14.13;12.07;;;14.20;99.90;;;;;;5468107;26;21589;-67
2024/05/07 06:47:46;;;;;;;12.80;11.02;;;14.50;99.90;;;;;;5472567;26;20463;-68
2024/05/07 06:50:11;;;;;;;14.50;11.18;;;14.70;99.90;;;;;;5467827;26;19994;-67
2024/05/07 06:52:37;;;;;;;;;;;14.90;99.90;;;;;;5446348;26;20009;-67
2024/05/07 06:55:02;;;;;;;12.82;10.23;;;15.20;99.90;;;;;;5472126;26;19924;-67
2024/05/07 06:57:28;;;;;;;;;;;15.40;99.90;;;;;;5478208;26;20378;-66
2024/05/07 06:59:53;;;;;;;14.02;10.57;;;15.70;99.90;;;;;;5448240;26;20060;-67
2024/05/07 07:02:19;;;;;;;12.32;8.77;;;15.80;99.90;;;;;;5468993;26;20040;-66
2024/05/07 07:04:44;;;;;;;;;;;15.80;99.90;;;;;;5472426;26;20073;-67
2024/05/07 07:07:12;;;;;;;11.20;8.82;;;15.90;99.90;;;;;;5472393;26;20417;-66
2024/05/07 07:09:38;;;;;;;14.77;9.75;;;16.00;99.90;;;;;;5465921;26;20009;-66
2024/05/07 07:12:03;;;;;;;;;;;16.00;99.90;;;;;;5471840;26;20007;-67
2024/05/07 07:14:29;;;;;;;13.52;9.43;;;16.00;99.90;;;;;;5473593;26;19923;-67
2024/05/07 07:16:59;;;;;;;;;;;16.10;99.90;;;;;;5473925;26;19991;-66
2024/05/07 07:19:28;;;;;;;9.95;7.60;;;16.30;99.90;;;;;;5457591;26;19923;-66
2024/05/07 07:21:57;;;;;;;10.32;7.68;;;16.70;99.90;;;;;;5446628;26;19998;-66
2024/05/07 07:24:23;;;;;;;11.40;7.72;;;17.00;99.90;;;;;;5465020;26;20329;-67
2024/05/07 07:26:49;;;;;;;;;;;17.10;99.90;;;;;;5473977;26;19998;-66
2024/05/07 07:29:15;;;;;;;9.48;7.00;;;17.10;99.90;;;;;;5472822;26;19930;-66
2024/05/07 07:31:40;;;;;;;;;;;17.30;99.90;;;;;;5472734;26;20433;-66
2024/05/07 07:34:06;;;;;;;9.90;6.95;;;17.40;99.90;;;;;;5474290;26;19959;-66
2024/05/07 07:36:32;;;;;;;;;;;17.50;99.90;;;;;;5474963;26;20006;-66
2024/05/07 07:38:57;;;;;;;10.18;7.05;;;17.70;99.90;;;;;;5453990;26;19932;-66
2024/05/07 07:41:23;;;;;;;9.43;6.55;;;17.80;99.90;;;;;;5471039;26;20010;-66
2024/05/07 07:43:48;;;;;;;10.40;6.55;;;17.80;99.90;;;;;;5476889;26;20074;-66
2024/05/07 07:46:14;;;;;;;;;;;17.90;99.90;;;;;;5477593;26;19998;-66
2024/05/07 07:48:39;;;;;;;9.20;6.25;;;18.00;99.90;;;;;;5474173;26;19943;-67
2024/05/07 07:51:05;;;;;;;7.15;5.63;;;18.20;99.90;;;;;;5473863;26;20329;-67
2024/05/07 07:53:30;;;;;;;;;;;18.30;99.90;;;;;;5447107;26;20350;-67
2024/05/07 07:55:56;;;;;;;7.90;5.22;;;18.30;99.90;;;;;;5452758;26;19931;-66
2024/05/07 07:58:22;;;;;;;;;;;18.20;99.60;;;;;;5470229;26;20094;-65
2024/05/07 08:00:47;;;;;;;6.35;4.78;;;18.20;99.90;;;;;;5472716;26;19923;-65
2024/05/07 08:03:17;;;;;;;5.93;4.95;;;18.20;99.90;;;;;;5472448;26;20661;-66
2024/05/07 08:05:43;;;;;;;6.82;5.00;;;18.30;99.90;;;;;;5477539;26;20002;-66
2024/05/07 08:08:08;;;;;;;;;;;18.50;99.90;;;;;;5466982;26;19994;-66
2024/05/07 08:10:34;;;;;;;7.35;5.05;;;18.50;99.90;;;;;;5444407;26;20250;-66
2024/05/07 08:12:59;;;;;;;;;;;18.70;99.90;;;;;;5480381;26;20475;-65
2024/05/07 08:15:25;;;;;;;7.22;5.97;;;18.90;99.80;;;;;;5476339;26;19952;-66
2024/05/07 08:17:50;;;;;;;5.90;4.88;;;18.90;99.10;;;;;;5472426;26;22582;-66
2024/05/07 08:20:16;;;;;;;;;;;18.80;98.90;;;;;;5468304;26;20002;-66
2024/05/07 08:22:41;;;;;;;5.78;4.75;;;18.70;99.50;;;;;;5451521;26;19936;-66
2024/05/07 08:25:07;;;;;;;;;;;18.70;99.90;;;;;;5473735;26;19995;-66
2024/05/07 08:27:33;;;;;;;7.60;4.70;;;18.90;99.40;;;;;;5475546;26;19971;-66
2024/05/07 08:29:59;;;;;;;;;;;19.00;98.60;;;;;;5473014;26;19998;-67
2024/05/07 08:32:26;;;;;;;6.38;4.78;;;19.20;98.80;;;;;;5449646;26;19924;-66
2024/05/07 08:34:52;;;;;;;5.80;4.60;;;19.20;99.30;;;;;;5473856;26;20441;-66
2024/05/07 08:37:18;;;;;;;;;;;19.30;98.80;;;;;;5472897;26;20055;-66
2024/05/07 08:39:43;;;;;;;5.85;4.20;;;19.50;98.00;;;;;;5474047;26;19924;-68
2024/05/07 08:42:09;;;;;;;4.35;3.95;;;19.40;97.70;;;;;;5470809;26;19999;-68
2024/05/07 08:44:34;;;;;;;5.75;4.40;;;19.50;98.60;;;;;;5446995;26;20007;-68
2024/05/07 08:47:02;;;;;;;6.32;4.45;;;19.60;98.00;;;;;;5475409;26;20456;-69
2024/05/07 08:49:28;;;;;;;5.65;4.18;;;19.70;98.30;;;;;;5469688;26;20010;-69
2024/05/07 08:52:01;;;;;;;8.60;4.15;;;19.80;98.30;;;;;;5450514;26;20051;-69
2024/05/07 08:54:28;;;;;;;9.68;4.10;;;20.00;97.30;;;;;;5471776;26;20013;-67
2024/05/07 08:56:54;;;;;;;5.05;3.90;;;20.10;97.30;;;;;;5470906;26;19998;-67
2024/05/07 08:59:20;;;;;;;6.32;4.53;;;20.10;97.10;;;;;;5470258;26;20440;-67
2024/05/07 09:01:46;;;;;;;7.05;4.70;;;20.10;96.70;;;;;;5452508;26;20055;-67
2024/05/07 09:04:24;;;;;;;3.92;3.53;;;20.00;97.50;;;;;;5477786;26;20002;-67
2024/05/07 09:06:51;;;;;;;8.82;4.32;;;20.10;97.60;;;;;;5473199;26;20010;-68
2024/05/07 09:09:18;;;;;;;7.95;4.30;;;20.20;97.20;;;;;;5475760;26;19995;-68
2024/05/07 09:11:54;;;;;;;5.07;3.30;;;19.90;97.50;;;;;;5466296;26;20051;-68
2024/05/07 09:14:20;;;;;;;8.20;5.72;;;19.90;97.30;;;;;;5468402;26;19999;-67
2024/05/07 09:16:46;;;;;;;4.82;3.33;;;20.00;95.80;;;;;;5477902;26;20847;-67
2024/05/07 09:19:12;;;;;;;4.32;2.70;;;20.00;96.80;;;;;;5471254;26;20440;-67
2024/05/07 09:21:41;;;;;;;4.22;2.05;;;20.10;95.90;;;;;;5474149;26;20340;-67
2024/05/07 09:24:07;;;;;;;3.95;2.75;;;20.00;95.10;;;;;;5469246;26;19994;-67
2024/05/07 09:26:46;;;;;;;6.18;3.70;;;19.90;95.20;;;;;;5464365;26;20317;-67
2024/05/07 09:29:12;;;;;;;5.93;3.40;;;19.70;95.90;;;;;;5444617;26;19998;-67
2024/05/07 09:31:42;;;;;;;4.90;3.10;;;19.70;96.90;;;;;;5472750;26;19995;-67
2024/05/07 09:34:12;;;;;;;2.85;2.17;;;19.60;95.70;;;;;;5465539;26;20073;-66
2024/05/07 09:36:48;;;;;;;3.90;2.90;;;19.60;96.20;;;;;;5472078;26;20013;-67
2024/05/07 09:39:26;;;;;;;6.00;2.92;;;19.60;96.30;;;;;;5470629;26;20360;-66
2024/05/07 09:42:00;;;;;;;5.15;2.63;;;19.60;95.60;;;;;;5443609;26;19991;-66
2024/05/07 09:44:34;;;;;;;6.50;2.80;;;19.50;96.10;;;;;;5441161;26;19991;-66
2024/05/07 09:47:02;;;;;;;6.00;2.90;;;19.50;96.10;;;;;;5466235;26;20340;-66
2024/05/07 09:49:28;;;;;;;5.00;3.38;;;19.40;96.70;;;;;;5469978;26;19991;-67
2024/05/07 09:51:57;;;;;;;5.15;3.05;;;19.40;96.70;;;;;;5467318;26;20002;-66
2024/05/07 09:54:25;;;;;;;5.63;2.17;;;19.50;96.50;;;;;;5438944;26;20071;-66
2024/05/07 09:56:51;;;;;;;3.63;2.50;;;19.60;98.10;;;;;;5460255;26;20006;-66
2024/05/07 09:59:19;;;;;;;3.00;1.70;;;19.50;96.30;;;;;;5470286;26;20028;-66
2024/05/07 10:01:45;;;;;;;2.47;2.00;;;19.40;96.40;;;;;;5471958;26;19998;-66
2024/05/07 10:04:11;;;;;;;3.42;2.22;;;19.40;95.60;;;;;;5471106;26;19998;-68
2024/05/07 10:06:37;;;;;;;;;;;19.30;97.00;;;;;;5473779;26;20056;-66
2024/05/07 10:09:02;;;;;;;3.60;1.80;;;19.40;95.70;;;;;;5446777;26;19932;-66
2024/05/07 10:11:28;;;;;;;2.58;2.38;;;19.30;96.20;;;;;;5466655;26;19998;-66
2024/05/07 10:14:05;;;;;;;4.53;2.45;;;19.30;97.10;;;;;;5448683;26;20034;-67
2024/05/07 10:16:32;;;;;;;4.50;2.47;;;19.50;96.50;;;;;;5448338;26;20005;-67
2024/05/07 10:19:02;;;;;;;4.65;3.40;;;19.40;96.80;;;;;;5470353;26;20047;-67
2024/05/07 10:21:35;;;;;;;3.78;3.15;;;19.40;96.90;;;;;;5479855;26;20005;-67
2024/05/07 10:24:11;;;;;;;5.90;2.95;;;19.40;97.30;;;;;;5480344;26;20002;-67
2024/05/07 10:26:37;;;;;;;5.97;3.80;;;19.50;97.20;;;;;;5473614;26;19999;-67
2024/05/07 10:29:03;;;;;;;6.10;3.20;;;19.30;97.50;;;;;;5467766;26;20013;-67
2024/05/07 10:31:29;;;;;;;;;;;19.10;97.70;;;;;;5466728;26;19994;-67
2024/05/07 10:33:58;;;;;;;4.40;2.85;;;19.00;98.30;;;;;;5469248;26;19931;-67
2024/05/07 10:36:32;;;;;;;3.47;2.20;;;18.90;98.00;;;;;;5466766;26;20055;-67
2024/05/07 10:38:58;;;;;;;2.78;2.38;;;19.00;97.40;;;;;;5439449;26;19998;-67
2024/05/07 10:41:24;;;;;;;4.40;3.30;;;19.20;96.90;;;;;;5469177;26;20451;-67
2024/05/07 10:43:49;;;;;;;;;;;19.30;97.80;;;;;;5475806;26;20029;-67
2024/05/07 10:46:19;;;;;;;3.75;3.30;;;19.50;99.10;;;;;;5451413;26;19932;-66
2024/05/07 10:49:03;;;;;;;3.92;3.45;;;19.60;97.50;;;;;;5459549;26;20013;-68
2024/05/07 10:51:38;;;;;;;4.97;3.05;;;19.60;97.60;;;;;;5443521;26;20309;-67
2024/05/07 10:54:05;;;;;;;4.55;3.25;;;19.60;97.70;;;;;;5445683;26;19998;-67
2024/05/07 10:56:31;;;;;;;4.72;2.67;;;19.60;97.60;;;;;;5447524;26;20002;-67
2024/05/07 10:59:09;;;;;;;3.67;3.25;;;19.60;97.70;;;;;;5441272;26;19994;-67
2024/05/07 11:01:37;;;;;;;4.95;3.03;;;19.60;97.40;;;;;;5475912;26;19995;-67
2024/05/07 11:04:03;;;;;;;3.17;2.50;;;19.50;97.30;;;;;;5448498;26;20006;-66
2024/05/07 11:06:28;;;;;;;4.20;2.60;;;19.50;96.30;;;;;;5478977;26;19998;-67
2024/05/07 11:08:54;;;;;;;3.28;2.70;;;19.50;97.20;;;;;;5468269;26;19994;-67
2024/05/07 11:11:20;;;;;;;5.55;2.47;;;19.60;97.10;;;;;;5448703;26;20014;-67
2024/05/07 11:13:46;;;;;;;3.35;2.88;;;19.50;97.20;;;;;;5447937;26;20013;-67
2024/05/07 11:16:15;;;;;;;5.97;2.63;;;19.50;97.00;;;;;;5469325;26;20774;-67
2024/05/07 11:18:49;;;;;;;4.43;3.35;;;19.60;97.30;;;;;;5472093;26;20029;-68
2024/05/07 11:21:14;;;;;;;4.28;2.85;;;19.80;96.90;;;;;;5444739;26;20002;-67
2024/05/07 11:23:43;;;;;;;4.88;3.10;;;19.90;97.00;;;;;;5476369;26;20006;-67
2024/05/07 11:26:09;;;;;;;3.83;3.20;;;19.90;97.60;;;;;;5472586;26;20097;-67
2024/05/07 11:28:34;;;;;;;4.47;2.70;;;19.80;97.20;;;;;;5477956;26;19990;-67
2024/05/07 11:31:00;;;;;;;3.60;2.70;;;19.70;96.50;;;;;;5468995;26;19998;-67
2024/05/07 11:33:25;;;;;;;4.43;2.75;;;19.60;97.40;;;;;;5451602;26;19994;-67
2024/05/07 11:35:53;;;;;;;5.75;2.95;;;19.60;97.60;;;;;;5471905;26;20436;-67
2024/05/07 11:38:19;;;;;;;4.32;2.30;;;19.70;97.00;;;;;;5449754;26;19998;-67
2024/05/07 11:40:44;;;;;;;3.95;2.42;;;19.80;97.50;;;;;;5477450;26;20002;-67
2024/05/07 11:43:10;;;;;;;2.30;2.10;;;19.90;97.00;;;;;;5480121;26;20013;-67
2024/05/07 11:45:36;;;;;;;5.15;2.38;;;19.90;96.60;;;;;;5468747;26;19998;-68
2024/05/07 11:48:03;;;;;;;5.72;2.30;;;20.00;96.60;;;;;;5473138;26;20074;-67
2024/05/07 11:50:30;;;;;;;3.50;2.70;;;20.10;97.30;;;;;;5439949;26;20469;-67
2024/05/07 11:52:56;;;;;;;2.47;2.22;;;20.00;96.40;;;;;;5453458;26;20066;-67
2024/05/07 11:55:25;;;;;;;2.78;2.50;;;19.90;97.10;;;;;;5465727;26;20426;-67
2024/05/07 11:57:51;;;;;;;2.45;2.25;;;19.70;96.80;;;;;;5478661;26;19994;-67
2024/05/07 12:00:18;;;;;;;4.32;2.20;;;19.60;97.10;;;;;;5483019;26;20308;-67
2024/05/07 12:02:43;;;;;;;4.40;2.05;;;19.50;97.20;;;;;;5448987;26;19998;-67
2024/05/07 12:05:09;;;;;;;2.65;2.22;;;19.40;97.50;;;;;;5477290;26;19998;-67
2024/05/07 12:07:36;;;;;;;3.58;2.30;;;19.50;97.50;;;;;;5472260;26;19995;-67
2024/05/07 12:10:02;;;;;;;2.70;2.22;;;19.60;97.50;;;;;;5453786;26;19994;-67
2024/05/07 12:12:28;;;;;;;2.70;2.50;;;19.60;96.90;;;;;;5473097;26;20013;-67
2024/05/07 12:14:53;;;;;;;4.18;2.10;;;19.50;96.90;;;;;;5472133;26;20002;-67
2024/05/07 12:17:24;;;;;;;2.30;1.98;;;19.50;97.40;;;;;;5476513;26;19998;-67
2024/05/07 12:19:50;;;;;;;2.72;2.20;;;19.50;97.50;;;;;;5477842;26;19998;-67
2024/05/07 12:27:44;;;;;;;2.95;2.33;;;19.90;97.10;;;;;;5473509;26;20069;-67
2024/05/07 12:30:10;;;;;;;4.30;2.22;;;19.90;97.30;;;;;;5472231;26;20021;-67
2024/05/07 12:32:35;;;;;;;2.72;2.30;;;19.90;97.30;;;;;;5468857;26;19995;-67
2024/05/07 12:35:01;;;;;;;2.53;1.95;;;19.90;97.10;;;;;;5451287;26;20445;-67
2024/05/07 12:37:27;;;;;;;3.72;1.92;;;19.90;97.30;;;;;;5480384;26;20030;-67
2024/05/07 12:39:52;;;;;;;2.78;1.80;;;19.90;96.30;;;;;;5440969;26;20002;-66
2024/05/07 12:42:18;;;;;;;4.80;2.10;;;20.00;96.40;;;;;;5472194;26;19998;-67
2024/05/07 12:44:43;;;;;;;2.42;1.80;;;19.90;96.10;;;;;;5469127;26;20074;-67
2024/05/07 12:47:09;;;;;;;3.85;2.85;;;20.00;96.70;;;;;;5474185;26;20071;-67